Time;durP1;ratioP1;P1;durP2;ratioP2;P2;SDS_P1;SDS_P2;PMS_P1;PMS_P2;Temp;Humidity;BMP_temperature;BMP_pressure;BME280_temperature;BME280_humidity;BME280_pressure;Samples;Min_cycle;Max_cycle;Signal;HPM_P1;HPM_P2
2023/01/04 00:01:06;;;;;;;6.10;4.40;;;8.50;99.90;;;;;;7392746;19;20134;-72
2023/01/04 00:03:32;;;;;;;5.87;4.50;;;8.40;99.90;;;;;;7391559;19;20162;-70
2023/01/04 00:06:00;;;;;;;11.33;5.53;;;8.60;99.90;;;;;;7391630;19;20505;-70
2023/01/04 00:08:27;;;;;;;7.17;4.67;;;8.10;99.90;;;;;;7391561;19;20138;-72
2023/01/04 00:10:52;;;;;;;8.13;4.73;;;7.90;99.90;;;;;;7393485;19;20142;-70
2023/01/04 00:13:18;;;;;;;7.10;4.27;;;8.10;99.90;;;;;;7393108;19;20583;-71
2023/01/04 00:15:44;;;;;;;5.83;3.83;;;8.10;99.90;;;;;;7389259;19;20456;-70
2023/01/04 00:18:10;;;;;;;4.53;3.70;;;8.40;99.90;;;;;;7391685;19;20130;-70
2023/01/04 00:20:35;;;;;;;5.40;4.23;;;8.60;99.90;;;;;;7393327;19;20598;-71
2023/01/04 00:23:01;;;;;;;4.97;4.07;;;8.60;99.90;;;;;;7389370;19;20167;-71
2023/01/04 00:25:27;;;;;;;6.27;4.40;;;8.70;99.90;;;;;;7389897;19;20182;-70
2023/01/04 00:27:52;;;;;;;3.70;3.13;;;8.70;99.90;;;;;;7390330;19;20143;-71
2023/01/04 00:30:18;;;;;;;6.10;4.30;;;8.70;99.90;;;;;;7390681;19;20151;-70
2023/01/04 00:32:44;;;;;;;4.90;3.90;;;8.60;99.90;;;;;;7389225;19;20138;-70
2023/01/04 00:35:10;;;;;;;6.33;4.13;;;8.50;99.90;;;;;;7389831;19;20138;-71
2023/01/04 00:37:36;;;;;;;5.37;3.90;;;8.00;99.90;;;;;;7392990;19;20126;-70
2023/01/04 00:40:02;;;;;;;5.20;4.00;;;8.10;99.90;;;;;;7392619;19;20138;-71
2023/01/04 00:42:28;;;;;;;6.13;3.53;;;8.10;99.90;;;;;;7391594;19;20181;-70
2023/01/04 00:44:54;;;;;;;5.07;3.67;;;8.30;99.90;;;;;;7389576;19;20589;-71
2023/01/04 00:47:20;;;;;;;4.70;3.40;;;8.60;99.90;;;;;;7390739;19;20233;-71
2023/01/04 00:49:45;;;;;;;5.90;4.03;;;8.60;99.90;;;;;;7389610;19;20151;-71
2023/01/04 00:52:11;;;;;;;5.13;3.97;;;8.60;99.90;;;;;;7393026;19;20135;-70
2023/01/04 00:54:37;;;;;;;5.13;3.80;;;8.70;99.90;;;;;;7390321;19;20206;-70
2023/01/04 00:57:04;;;;;;;4.80;3.30;;;8.60;99.90;;;;;;7390204;19;20146;-70
2023/01/04 00:59:30;;;;;;;5.50;4.00;;;8.50;99.90;;;;;;7393182;19;20130;-71
2023/01/04 01:01:56;;;;;;;3.97;3.50;;;8.50;99.90;;;;;;7390391;19;20138;-71
2023/01/04 01:04:22;;;;;;;3.57;3.03;;;8.50;99.90;;;;;;7387492;19;20745;-70
2023/01/04 01:06:49;;;;;;;4.47;3.70;;;8.50;99.90;;;;;;7392025;19;20138;-70
2023/01/04 01:09:15;;;;;;;5.00;3.60;;;8.60;99.90;;;;;;7392234;19;20138;-70
2023/01/04 01:11:41;;;;;;;4.93;3.67;;;8.50;99.90;;;;;;7396690;19;20151;-70
2023/01/04 01:14:12;;;;;;;5.47;3.80;;;8.50;99.90;;;;;;7397664;19;20135;-70
2023/01/04 01:16:38;;;;;;;6.73;3.67;;;8.10;99.90;;;;;;7397815;19;20185;-70
2023/01/04 01:19:04;;;;;;;4.47;3.67;;;8.20;99.90;;;;;;7394912;19;20519;-71
2023/01/04 01:21:31;;;;;;;5.03;3.70;;;8.00;99.90;;;;;;7397752;19;20872;-69
2023/01/04 01:23:57;;;;;;;5.10;3.73;;;7.60;99.90;;;;;;7395837;19;20135;-71
2023/01/04 01:26:25;;;;;;;5.70;4.27;;;7.60;99.90;;;;;;7397946;19;20185;-70
2023/01/04 01:28:51;;;;;;;4.40;3.40;;;7.70;99.90;;;;;;7389751;19;20167;-70
2023/01/04 01:31:20;;;;;;;4.63;3.70;;;7.60;99.90;;;;;;7396075;19;20166;-70
2023/01/04 01:33:48;;;;;;;4.87;3.30;;;7.20;99.90;;;;;;7393664;19;20142;-71
2023/01/04 01:36:15;;;;;;;4.57;3.80;;;7.10;99.90;;;;;;7389373;19;20162;-70
2023/01/04 01:38:41;;;;;;;4.70;3.43;;;7.30;99.90;;;;;;7389548;19;20139;-69
2023/01/04 01:41:14;;;;;;;5.07;3.73;;;7.60;99.90;;;;;;7390380;19;20590;-70
2023/01/04 01:43:58;;;;;;;5.40;3.70;;;7.70;99.90;;;;;;7393728;19;20202;-70
2023/01/04 01:46:38;;;;;;;4.10;3.23;;;7.90;99.90;;;;;;7396115;19;20154;-70
2023/01/04 01:49:41;;;;;;;4.53;3.50;;;7.90;99.90;;;;;;7395621;19;20150;-69
2023/01/04 01:52:17;;;;;;;3.97;3.20;;;8.10;99.90;;;;;;7396882;19;20602;-70
2023/01/04 01:54:56;;;;;;;4.77;3.40;;;8.20;99.90;;;;;;7395498;19;20144;-69
2023/01/04 01:57:24;;;;;;;4.10;3.60;;;8.30;99.90;;;;;;7396285;19;20158;-70
2023/01/04 01:59:54;;;;;;;5.50;3.23;;;7.80;99.90;;;;;;7397746;19;20138;-71
2023/01/04 02:02:20;;;;;;;6.10;3.50;;;8.00;99.90;;;;;;7395443;19;20564;-71
2023/01/04 02:04:49;;;;;;;3.63;3.13;;;8.00;99.90;;;;;;7392900;19;20218;-70
2023/01/04 02:07:19;;;;;;;4.33;3.33;;;7.80;99.90;;;;;;7396022;19;20154;-71
2023/01/04 02:09:45;;;;;;;3.90;3.10;;;7.60;99.90;;;;;;7394322;19;20508;-70
2023/01/04 02:12:12;;;;;;;4.50;3.13;;;7.80;99.90;;;;;;7395597;19;20156;-71
2023/01/04 02:14:41;;;;;;;5.47;3.60;;;8.10;99.90;;;;;;7394854;19;20142;-70
2023/01/04 02:17:13;;;;;;;4.23;3.00;;;7.90;99.90;;;;;;7396940;19;20142;-71
2023/01/04 02:19:47;;;;;;;4.47;3.40;;;7.40;99.90;;;;;;7396457;19;20222;-69
2023/01/04 02:22:47;;;;;;;4.47;2.90;;;7.40;99.90;;;;;;7395061;19;20142;-70
2023/01/04 02:25:40;;;;;;;5.27;3.70;;;7.70;99.90;;;;;;7394022;19;20153;-70
2023/01/04 02:28:48;;;;;;;6.13;3.07;;;7.90;99.90;;;;;;7396186;19;20130;-70
2023/01/04 02:31:20;;;;;;;4.03;3.07;;;7.20;99.90;;;;;;7389827;19;20142;-72
2023/01/04 02:34:22;;;;;;;3.47;3.03;;;7.00;99.90;;;;;;7392712;19;20249;-70
2023/01/04 02:37:06;;;;;;;4.00;2.80;;;7.00;99.90;;;;;;7392690;19;20580;-69
2023/01/04 02:40:10;;;;;;;3.17;2.70;;;7.30;99.90;;;;;;7396738;19;20134;-71
2023/01/04 02:45:38;;;;;;;4.40;3.27;;;7.90;99.90;;;;;;7393225;19;20226;-70
2023/01/04 02:50:53;;;;;;;3.50;2.90;;;8.00;99.90;;;;;;7394309;19;20164;-71
2023/01/04 02:53:23;;;;;;;5.03;3.03;;;8.10;99.90;;;;;;7393052;19;20182;-70
2023/01/04 02:56:10;;;;;;;3.60;3.00;;;8.20;99.90;;;;;;7390741;19;20159;-71
2023/01/04 02:58:51;;;;;;;3.20;2.83;;;8.20;99.90;;;;;;7394239;19;20155;-70
2023/01/04 03:07:31;;;;;;;3.40;2.90;;;8.00;99.90;;;;;;7393628;19;20163;-70
2023/01/04 03:10:07;;;;;;;4.43;3.07;;;8.00;99.90;;;;;;7393841;19;20139;-69
2023/01/04 03:12:40;;;;;;;4.50;3.10;;;8.10;99.90;;;;;;7393349;19;20164;-70
2023/01/04 03:15:15;;;;;;;3.40;2.63;;;8.20;99.90;;;;;;7392639;19;20586;-70
2023/01/04 03:17:48;;;;;;;3.70;2.80;;;8.20;99.90;;;;;;7394421;19;20583;-71
2023/01/04 03:20:17;;;;;;;2.93;2.47;;;8.20;99.90;;;;;;7394261;19;20141;-69
2023/01/04 03:37:10;;;;;;;5.37;2.90;;;8.00;99.90;;;;;;7393595;19;20226;-70
2023/01/04 03:48:52;;;;;;;4.03;3.10;;;8.00;99.90;;;;;;7393576;19;20218;-70
2023/01/04 03:51:26;;;;;;;3.33;2.40;;;8.10;99.90;;;;;;7392333;19;20660;-70
2023/01/04 03:53:59;;;;;;;3.20;2.40;;;8.10;99.90;;;;;;7391674;19;20146;-70
2023/01/04 03:56:27;;;;;;;3.10;2.30;;;8.10;99.90;;;;;;7390946;19;20134;-70
2023/01/04 03:58:53;;;;;;;3.40;2.63;;;8.10;99.90;;;;;;7393505;19;20489;-70
2023/01/04 04:01:22;;;;;;;3.20;2.43;;;8.20;99.90;;;;;;7391754;19;20138;-70
2023/01/04 04:09:16;;;;;;;3.60;2.50;;;8.00;99.90;;;;;;7392376;19;20139;-71
2023/01/04 04:11:41;;;;;;;2.47;1.90;;;8.20;99.90;;;;;;7393947;19;20146;-70
2023/01/04 04:14:07;;;;;;;2.90;2.37;;;8.30;99.90;;;;;;7392168;19;20141;-70
2023/01/04 04:16:33;;;;;;;2.40;1.93;;;8.40;99.90;;;;;;7393146;19;20582;-69
2023/01/04 04:18:58;;;;;;;2.90;2.27;;;8.30;99.90;;;;;;7390915;19;20210;-70
2023/01/04 04:21:24;;;;;;;2.77;2.30;;;8.40;99.90;;;;;;7391657;19;20641;-71
2023/01/04 04:23:50;;;;;;;3.13;2.00;;;8.50;99.90;;;;;;7390598;19;20597;-71
2023/01/04 04:26:16;;;;;;;2.93;1.77;;;8.50;99.90;;;;;;7392544;19;20135;-71
2023/01/04 04:28:42;;;;;;;2.53;2.17;;;8.60;99.90;;;;;;7390127;19;20178;-70
2023/01/04 04:31:08;;;;;;;2.37;1.80;;;8.60;99.90;;;;;;7393254;19;20130;-70
2023/01/04 04:33:34;;;;;;;2.30;1.80;;;8.50;99.90;;;;;;7389432;19;20230;-71
2023/01/04 04:36:00;;;;;;;1.80;1.63;;;8.60;99.90;;;;;;7388818;19;20130;-71
2023/01/04 04:38:25;;;;;;;2.97;2.20;;;8.50;99.90;;;;;;7392093;19;20138;-69
2023/01/04 04:43:35;;;;;;;1.87;1.40;;;8.70;99.90;;;;;;7390235;19;20474;-69
2023/01/04 04:46:02;;;;;;;3.20;1.80;;;8.60;99.90;;;;;;7390824;19;20145;-71
2023/01/04 04:48:27;;;;;;;2.10;1.90;;;8.60;99.90;;;;;;7391544;19;20605;-71
2023/01/04 04:50:53;;;;;;;2.00;1.80;;;8.80;99.90;;;;;;7392158;19;20123;-70
2023/01/04 04:53:19;;;;;;;1.73;1.50;;;8.60;99.90;;;;;;7389293;19;20153;-70
2023/01/04 04:55:44;;;;;;;1.70;1.47;;;8.60;99.90;;;;;;7388562;19;20458;-71
2023/01/04 04:58:10;;;;;;;2.20;1.80;;;8.70;99.90;;;;;;7389962;19;20142;-70
2023/01/04 05:00:36;;;;;;;1.50;1.37;;;8.70;99.90;;;;;;7392264;19;20129;-70
2023/01/04 05:03:03;;;;;;;2.00;1.50;;;8.70;99.90;;;;;;7390539;19;20598;-70
2023/01/04 05:05:30;;;;;;;1.90;1.40;;;8.80;99.90;;;;;;7387153;19;20150;-70
2023/01/04 05:07:55;;;;;;;2.17;1.40;;;8.80;99.90;;;;;;7388092;19;20205;-69
2023/01/04 05:10:21;;;;;;;1.80;1.40;;;8.80;99.90;;;;;;7386182;19;20147;-70
2023/01/04 05:12:59;;;;;;;3.67;1.60;;;8.80;99.90;;;;;;7389524;19;20142;-69
2023/01/04 05:15:32;;;;;;;2.07;1.30;;;8.80;99.90;;;;;;7386080;19;20471;-70
2023/01/04 05:17:58;;;;;;;2.07;1.27;;;8.50;99.90;;;;;;7387857;19;20142;-70
2023/01/04 05:20:24;;;;;;;1.57;1.20;;;8.50;99.90;;;;;;7390342;19;20611;-70
2023/01/04 05:22:50;;;;;;;2.00;1.47;;;8.80;99.90;;;;;;7389294;19;20142;-70
2023/01/04 05:25:16;;;;;;;1.33;1.17;;;8.70;99.90;;;;;;7387335;19;20145;-69
2023/01/04 05:27:42;;;;;;;2.33;1.80;;;8.80;99.90;;;;;;7388656;19;20138;-71
2023/01/04 05:32:55;;;;;;;1.60;1.50;;;8.70;99.90;;;;;;7390108;19;20146;-71
2023/01/04 05:35:21;;;;;;;1.63;1.17;;;8.50;99.90;;;;;;7387306;19;20170;-70
2023/01/04 05:37:47;;;;;;;2.03;1.30;;;8.70;99.90;;;;;;7389100;19;20551;-72
2023/01/04 05:40:13;;;;;;;1.37;1.27;;;8.90;99.90;;;;;;7387762;19;20142;-71
2023/01/04 05:42:38;;;;;;;2.97;1.50;;;8.80;99.90;;;;;;7389294;19;20881;-71
2023/01/04 05:45:05;;;;;;;2.10;1.40;;;8.80;99.90;;;;;;7388661;19;20127;-70
2023/01/04 05:47:31;;;;;;;1.73;1.40;;;8.80;99.90;;;;;;7389826;19;20139;-71
2023/01/04 05:49:57;;;;;;;1.47;1.30;;;8.80;99.90;;;;;;7388491;19;20474;-71
2023/01/04 05:52:23;;;;;;;2.23;1.57;;;8.80;99.90;;;;;;7389244;19;20203;-71
2023/01/04 05:54:48;;;;;;;1.40;1.10;;;8.90;99.90;;;;;;7386294;19;20520;-71
2023/01/04 05:57:15;;;;;;;2.40;1.40;;;9.00;99.90;;;;;;7393614;19;20150;-69
2023/01/04 05:59:40;;;;;;;1.67;1.30;;;9.00;99.90;;;;;;7392901;19;20481;-70
2023/01/04 06:02:11;;;;;;;1.30;1.20;;;9.00;99.90;;;;;;7395209;19;20179;-71
2023/01/04 06:04:37;;;;;;;1.37;1.20;;;9.10;99.90;;;;;;7393431;19;20174;-71
2023/01/04 06:07:03;;;;;;;1.97;1.50;;;9.00;99.90;;;;;;7395585;19;20463;-71
2023/01/04 06:09:28;;;;;;;2.47;1.20;;;9.10;99.90;;;;;;7394578;19;20151;-72
2023/01/04 06:11:54;;;;;;;1.50;1.00;;;9.10;99.90;;;;;;7393722;19;20184;-70
2023/01/04 06:14:20;;;;;;;1.87;1.43;;;9.10;99.90;;;;;;7394193;19;20471;-70
2023/01/04 06:16:45;;;;;;;2.57;1.40;;;9.10;99.90;;;;;;7394306;19;20138;-70
2023/01/04 06:19:11;;;;;;;1.83;1.60;;;9.20;99.90;;;;;;7393708;19;20154;-71
2023/01/04 06:21:37;;;;;;;1.83;1.10;;;9.00;99.90;;;;;;7393611;19;20138;-72
2023/01/04 06:24:03;;;;;;;1.57;1.30;;;9.10;99.90;;;;;;7393136;19;20139;-70
2023/01/04 06:26:28;;;;;;;1.50;1.23;;;9.20;99.90;;;;;;7395579;19;20139;-70
2023/01/04 06:28:54;;;;;;;1.70;1.40;;;9.20;99.90;;;;;;7392270;19;20143;-71
2023/01/04 06:31:20;;;;;;;1.80;1.40;;;9.30;99.90;;;;;;7393750;19;20178;-71
2023/01/04 06:33:45;;;;;;;2.37;1.60;;;9.30;99.90;;;;;;7393216;19;20623;-69
2023/01/04 06:36:11;;;;;;;1.53;1.43;;;9.20;99.90;;;;;;7391968;19;20151;-71
2023/01/04 06:38:37;;;;;;;1.87;1.33;;;9.10;99.90;;;;;;7392595;19;20139;-70
2023/01/04 06:41:03;;;;;;;3.87;2.30;;;9.00;99.90;;;;;;7393495;19;20139;-71
2023/01/04 06:43:28;;;;;;;2.03;1.60;;;9.20;99.90;;;;;;7392899;19;20123;-71
2023/01/04 06:45:54;;;;;;;3.43;2.83;;;9.20;99.90;;;;;;7392935;19;20162;-70
2023/01/04 06:48:20;;;;;;;1.73;1.20;;;9.30;99.90;;;;;;7391513;19;20270;-71
2023/01/04 06:50:45;;;;;;;2.30;1.60;;;9.30;99.90;;;;;;7391862;19;20143;-69
2023/01/04 06:53:11;;;;;;;1.93;1.57;;;9.20;99.90;;;;;;7391188;19;20147;-71
2023/01/04 06:55:37;;;;;;;2.20;1.40;;;9.30;99.90;;;;;;7389775;19;20630;-70
2023/01/04 06:58:03;;;;;;;3.17;1.53;;;9.40;99.90;;;;;;7393399;19;20135;-70
2023/01/04 07:00:28;;;;;;;2.23;1.30;;;9.50;99.90;;;;;;7391990;19;20146;-69
2023/01/04 07:02:54;;;;;;;2.30;1.77;;;9.50;99.90;;;;;;7388507;19;20162;-71
2023/01/04 07:05:20;;;;;;;2.80;2.40;;;9.40;99.90;;;;;;7388128;19;20163;-72
2023/01/04 07:07:46;;;;;;;5.37;1.90;;;9.30;99.90;;;;;;7388256;19;20131;-71
2023/01/04 07:10:11;;;;;;;2.97;1.60;;;9.50;99.90;;;;;;7390849;19;20479;-71
2023/01/04 07:12:37;;;;;;;1.77;1.63;;;9.50;99.90;;;;;;7392762;19;20134;-72
2023/01/04 07:15:04;;;;;;;3.37;1.70;;;9.50;99.90;;;;;;7388905;19;20154;-72
2023/01/04 07:17:31;;;;;;;2.60;1.67;;;9.50;99.90;;;;;;7392471;19;20155;-71
2023/01/04 07:19:56;;;;;;;2.63;2.13;;;9.50;99.90;;;;;;7389295;19;20173;-70
2023/01/04 07:22:22;;;;;;;1.57;1.40;;;9.50;99.90;;;;;;7389114;19;20487;-72
2023/01/04 07:24:48;;;;;;;1.13;1.00;;;9.50;99.90;;;;;;7388710;19;20586;-72
2023/01/04 09:36:12;;;;;;;1.00;0.70;;;9.80;99.90;;;;;;7376553;19;20200;-74
2023/01/04 09:38:38;;;;;;;0.93;0.70;;;9.70;99.90;;;;;;7394471;19;20142;-74
2023/01/04 09:41:13;;;;;;;1.30;0.80;;;9.80;99.90;;;;;;7420197;19;20494;-75
2023/01/04 09:43:53;;;;;;;0.80;0.77;;;9.90;99.90;;;;;;7418204;19;20254;-74
2023/01/04 09:46:40;;;;;;;1.63;1.00;;;9.90;99.90;;;;;;7421069;19;20637;-73
2023/01/04 09:49:25;;;;;;;2.37;0.87;;;9.90;99.90;;;;;;7421965;19;20440;-76
2023/01/04 09:52:00;;;;;;;2.47;1.00;;;9.90;99.90;;;;;;7419962;19;20456;-74
2023/01/04 09:54:42;;;;;;;1.87;0.90;;;10.00;99.90;;;;;;7422331;19;20129;-72
2023/01/04 09:57:22;;;;;;;1.33;0.70;;;9.70;99.90;;;;;;7418041;19;20130;-73
2023/01/04 09:59:53;;;;;;;1.50;0.90;;;9.90;99.90;;;;;;7422447;19;21005;-75
2023/01/04 10:02:25;;;;;;;0.90;0.60;;;10.00;99.90;;;;;;7419661;19;20126;-75
2023/01/04 10:04:51;;;;;;;1.03;0.90;;;10.10;99.90;;;;;;7422509;19;20134;-74
2023/01/04 10:07:28;;;;;;;1.37;0.90;;;10.10;99.90;;;;;;7421552;19;20285;-77
2023/01/04 10:09:55;;;;;;;1.13;0.80;;;10.20;99.90;;;;;;7422368;19;20134;-74
2023/01/04 10:12:27;;;;;;;1.27;0.70;;;10.00;99.90;;;;;;7423315;19;20146;-73
2023/01/04 10:15:05;;;;;;;1.10;1.00;;;10.10;99.90;;;;;;7423552;19;20128;-73
2023/01/04 10:18:07;;;;;;;2.30;1.10;;;10.00;99.90;;;;;;7421926;19;20885;-72
2023/01/04 10:21:08;;;;;;;1.90;0.80;;;10.20;99.90;;;;;;7421153;19;20130;-74
2023/01/04 10:23:50;;;;;;;2.47;0.80;;;10.30;99.90;;;;;;7416420;19;20134;-72
2023/01/04 10:26:24;;;;;;;1.33;0.70;;;10.30;99.90;;;;;;7419955;19;20122;-73
2023/01/04 10:29:32;;;;;;;3.40;1.40;;;10.30;99.90;;;;;;7414051;19;20158;-73
2023/01/04 10:32:24;;;;;;;0.83;0.67;;;10.20;99.90;;;;;;7392351;19;20139;-72
2023/01/04 10:34:52;;;;;;;1.13;0.70;;;10.10;99.90;;;;;;7388308;19;20156;-73
2023/01/04 10:37:32;;;;;;;2.77;1.17;;;10.10;99.90;;;;;;7387224;19;20135;-72
2023/01/04 10:39:58;;;;;;;1.23;0.70;;;10.10;99.90;;;;;;7388899;19;20473;-74
2023/01/04 10:42:33;;;;;;;1.10;0.77;;;10.00;99.90;;;;;;7389385;19;20131;-73
2023/01/04 10:45:14;;;;;;;1.33;0.80;;;10.00;99.90;;;;;;7391237;19;20147;-73
2023/01/04 10:47:58;;;;;;;1.50;0.70;;;10.20;99.90;;;;;;7387143;19;20127;-73
2023/01/04 10:50:42;;;;;;;0.70;0.70;;;10.40;99.90;;;;;;7391557;19;20391;-74
2023/01/04 10:53:19;;;;;;;3.63;0.93;;;10.40;99.90;;;;;;7392982;19;20134;-76
2023/01/04 10:55:54;;;;;;;2.20;0.90;;;10.30;99.90;;;;;;7391819;19;20140;-73
2023/01/04 10:58:37;;;;;;;0.80;0.70;;;10.50;99.90;;;;;;7389925;19;20157;-74
2023/01/04 11:01:12;;;;;;;0.87;0.60;;;10.40;99.90;;;;;;7393032;19;20210;-74
2023/01/04 11:03:52;;;;;;;4.23;0.80;;;10.50;99.90;;;;;;7392153;19;20808;-74
2023/01/04 11:06:32;;;;;;;1.00;0.73;;;10.60;99.90;;;;;;7390350;19;20142;-74
2023/01/04 11:09:01;;;;;;;0.97;0.60;;;10.60;99.90;;;;;;7391110;19;20142;-77
2023/01/04 11:11:34;;;;;;;0.80;0.70;;;10.50;99.90;;;;;;7391771;19;20143;-74
2023/01/04 11:14:01;;;;;;;2.93;0.77;;;10.60;99.90;;;;;;7389979;19;20155;-75
2023/01/04 11:16:28;;;;;;;1.30;0.87;;;10.60;99.90;;;;;;7389251;19;20146;-75
2023/01/04 11:18:54;;;;;;;1.43;0.83;;;10.70;99.90;;;;;;7386925;19;20139;-75
2023/01/04 11:21:26;;;;;;;1.20;0.90;;;10.80;99.90;;;;;;7389677;19;20138;-76
2023/01/04 11:23:56;;;;;;;4.20;1.27;;;10.70;99.90;;;;;;7389742;19;20149;-75
2023/01/04 11:26:30;;;;;;;1.27;0.87;;;10.80;99.90;;;;;;7390586;19;20219;-76
2023/01/04 11:29:04;;;;;;;0.80;0.63;;;10.70;99.90;;;;;;7391395;19;20142;-76
2023/01/04 11:32:01;;;;;;;2.37;0.80;;;10.50;99.90;;;;;;7388908;19;20135;-75
2023/01/04 11:34:45;;;;;;;1.03;0.63;;;10.60;99.90;;;;;;7390168;19;20159;-75
2023/01/04 11:37:28;;;;;;;1.40;0.77;;;10.60;99.90;;;;;;7389087;19;20174;-76
2023/01/04 11:40:11;;;;;;;1.90;1.00;;;10.70;99.90;;;;;;7388695;19;20143;-77
2023/01/04 11:42:37;;;;;;;1.40;0.80;;;10.70;99.90;;;;;;7388426;19;20169;-75
2023/01/04 11:45:03;;;;;;;1.30;0.63;;;10.80;99.90;;;;;;7391256;19;20159;-75
2023/01/04 11:47:29;;;;;;;1.37;0.70;;;10.60;99.90;;;;;;7392467;19;20131;-74
2023/01/04 11:49:59;;;;;;;1.10;0.63;;;10.50;99.90;;;;;;7392196;19;20150;-77
2023/01/04 11:52:31;;;;;;;3.03;0.70;;;10.40;99.90;;;;;;7389576;19;20482;-76
2023/01/04 11:55:29;;;;;;;2.27;0.70;;;10.50;99.90;;;;;;7389446;19;20138;-76
2023/01/04 11:58:11;;;;;;;0.60;0.60;;;10.60;99.90;;;;;;7389047;19;20146;-75
2023/01/04 12:00:38;;;;;;;1.83;1.00;;;10.70;99.90;;;;;;7389018;19;20134;-76
2023/01/04 12:03:13;;;;;;;2.47;0.80;;;10.70;99.90;;;;;;7388545;19;20138;-75
2023/01/04 12:05:38;;;;;;;0.67;0.60;;;10.70;99.90;;;;;;7388742;19;20146;-74
2023/01/04 12:08:04;;;;;;;1.30;0.60;;;10.60;99.90;;;;;;7393742;19;20620;-74
2023/01/04 12:10:30;;;;;;;0.83;0.67;;;10.60;99.90;;;;;;7390682;19;20131;-76
2023/01/04 12:13:00;;;;;;;2.00;0.90;;;10.50;99.90;;;;;;7389403;19;20472;-75
2023/01/04 12:15:42;;;;;;;1.67;0.90;;;10.70;99.90;;;;;;7388845;19;20131;-76
2023/01/04 12:18:33;;;;;;;0.57;0.57;;;10.70;99.90;;;;;;7387656;19;20519;-75
2023/01/04 12:21:01;;;;;;;1.27;0.80;;;10.60;99.90;;;;;;7391704;19;20138;-77
2023/01/04 12:23:27;;;;;;;1.23;0.77;;;10.70;99.90;;;;;;7387585;19;20176;-74
2023/01/04 12:25:54;;;;;;;1.20;0.70;;;10.70;99.90;;;;;;7388880;19;20554;-75
2023/01/04 12:28:41;;;;;;;2.10;1.00;;;10.70;99.90;;;;;;7388289;19;20158;-76
2023/01/04 12:31:18;;;;;;;0.90;0.80;;;10.70;99.90;;;;;;7388582;19;20459;-75
2023/01/04 12:33:54;;;;;;;2.10;1.27;;;10.80;99.90;;;;;;7386053;19;20178;-75
2023/01/04 12:36:38;;;;;;;1.33;0.93;;;10.90;99.90;;;;;;7392406;19;20214;-75
2023/01/04 12:39:28;;;;;;;1.50;0.80;;;11.00;99.90;;;;;;7387901;19;20702;-76
2023/01/04 12:41:59;;;;;;;0.90;0.80;;;11.10;99.90;;;;;;7391872;19;20622;-76
2023/01/04 12:44:37;;;;;;;1.30;0.87;;;11.10;99.90;;;;;;7388803;19;20206;-75
2023/01/04 12:50:26;;;;;;;1.87;0.97;;;11.20;99.90;;;;;;7391429;19;20162;-75
2023/01/04 12:52:53;;;;;;;1.33;0.97;;;11.20;99.90;;;;;;7385696;19;20590;-77
2023/01/04 12:55:31;;;;;;;1.20;1.00;;;11.20;99.90;;;;;;7384845;19;20158;-76
2023/01/04 12:57:58;;;;;;;1.93;0.80;;;11.30;99.90;;;;;;7384619;19;20138;-75
2023/01/04 13:00:46;;;;;;;1.03;0.77;;;11.20;99.90;;;;;;7387995;19;20149;-76
2023/01/04 13:03:18;;;;;;;1.58;0.80;;;11.20;99.90;;;;;;7386302;19;20598;-77
2023/01/04 13:06:05;;;;;;;0.90;0.80;;;11.30;99.90;;;;;;7389272;19;20509;-75
2023/01/04 13:08:39;;;;;;;0.77;0.60;;;11.20;99.90;;;;;;7388771;19;20167;-74
2023/01/04 13:11:19;;;;;;;0.90;0.60;;;11.10;99.90;;;;;;7386141;19;20142;-74
2023/01/04 13:14:05;;;;;;;2.10;0.80;;;11.20;99.90;;;;;;7385424;19;20150;-75
2023/01/04 13:16:38;;;;;;;1.50;0.77;;;11.30;99.90;;;;;;7389334;19;20604;-75
2023/01/04 13:19:19;;;;;;;1.60;0.80;;;11.20;99.90;;;;;;7384679;19;20159;-75
2023/01/04 13:21:45;;;;;;;1.10;0.60;;;11.40;99.90;;;;;;7389172;19;20134;-76
2023/01/04 13:24:32;;;;;;;1.37;0.80;;;11.30;99.90;;;;;;7388266;19;20504;-75
2023/01/04 13:27:25;;;;;;;1.10;0.70;;;11.50;99.90;;;;;;7386379;19;20474;-76
2023/01/04 13:29:51;;;;;;;1.83;0.80;;;11.40;99.90;;;;;;7387880;19;20476;-75
2023/01/04 13:32:28;;;;;;;1.03;0.60;;;11.40;99.90;;;;;;7387766;19;20178;-78
2023/01/04 13:35:00;;;;;;;1.83;0.80;;;11.40;99.90;;;;;;7387992;19;20146;-76
2023/01/04 13:37:41;;;;;;;1.03;0.80;;;11.30;99.90;;;;;;7383731;19;20181;-76
2023/01/04 13:40:25;;;;;;;2.63;0.80;;;11.30;99.90;;;;;;7387305;19;20157;-76
2023/01/04 13:43:23;;;;;;;2.50;0.83;;;11.50;99.90;;;;;;7385191;19;20210;-77
2023/01/04 13:46:19;;;;;;;1.13;0.80;;;11.30;99.90;;;;;;7380401;19;20135;-78
2023/01/04 13:48:50;;;;;;;1.33;0.90;;;11.40;99.90;;;;;;7385147;19;20488;-77
2023/01/04 13:51:27;;;;;;;1.57;0.80;;;11.30;99.90;;;;;;7386780;19;20135;-78
2023/01/04 13:54:01;;;;;;;2.40;0.80;;;11.50;99.90;;;;;;7384310;19;20237;-78
2023/01/04 13:56:32;;;;;;;1.73;0.60;;;11.50;99.90;;;;;;7382427;19;20165;-77
2023/01/04 13:58:58;;;;;;;2.30;0.73;;;11.40;99.90;;;;;;7380621;19;20135;-77
2023/01/04 14:01:24;;;;;;;2.53;1.00;;;11.40;99.90;;;;;;7384582;19;20143;-77
2023/01/04 14:04:00;;;;;;;0.90;0.60;;;11.50;99.90;;;;;;7385900;19;20625;-77
2023/01/04 14:06:43;;;;;;;0.60;0.60;;;11.40;99.90;;;;;;7391265;19;20158;-78
2023/01/04 14:09:09;;;;;;;2.37;0.50;;;11.50;99.90;;;;;;7394630;19;20146;-77
2023/01/04 14:11:58;;;;;;;0.70;0.60;;;11.50;99.90;;;;;;7392906;19;20135;-78
2023/01/04 14:14:39;;;;;;;0.60;0.60;;;11.50;99.90;;;;;;7393868;19;20779;-76
2023/01/04 14:17:15;;;;;;;0.87;0.60;;;11.60;99.90;;;;;;7390424;19;20162;-77
2023/01/04 14:19:43;;;;;;;1.07;0.50;;;11.50;99.90;;;;;;7395775;19;20138;-77
2023/01/04 14:22:34;;;;;;;0.87;0.63;;;11.50;99.90;;;;;;7391698;19;20759;-76
2023/01/04 14:25:20;;;;;;;1.90;0.80;;;11.60;99.90;;;;;;7387558;19;20519;-80
2023/01/04 14:27:45;;;;;;;1.07;0.60;;;11.60;99.90;;;;;;7394280;19;20587;-80
2023/01/04 14:30:17;;;;;;;0.77;0.57;;;11.60;99.90;;;;;;7392928;19;20150;-80
2023/01/04 14:33:16;;;;;;;1.13;0.70;;;11.60;99.90;;;;;;7391052;19;20218;-75
2023/01/04 14:35:42;;;;;;;0.63;0.50;;;11.70;99.90;;;;;;7391992;19;20145;-77
2023/01/04 14:38:26;;;;;;;0.60;0.50;;;11.60;99.90;;;;;;7386956;19;20488;-76
2023/01/04 14:40:52;;;;;;;0.60;0.43;;;11.50;99.90;;;;;;7391668;19;20259;-76
2023/01/04 14:43:36;;;;;;;0.40;0.40;;;11.60;99.90;;;;;;7391366;19;20142;-76
2023/01/04 14:46:02;;;;;;;1.47;0.60;;;11.60;99.90;;;;;;7391310;19;20178;-76
2023/01/04 14:48:29;;;;;;;1.30;0.80;;;11.40;99.90;;;;;;7393260;19;20131;-75
2023/01/04 14:50:56;;;;;;;1.80;0.80;;;11.40;99.90;;;;;;7391176;19;20540;-76
2023/01/04 14:53:22;;;;;;;0.70;0.60;;;11.50;99.90;;;;;;7391042;19;20483;-76
2023/01/04 14:55:47;;;;;;;0.80;0.50;;;11.50;99.90;;;;;;7391822;19;20147;-76
2023/01/04 14:58:13;;;;;;;0.73;0.60;;;11.60;99.90;;;;;;7392865;19;20143;-76
2023/01/04 15:00:39;;;;;;;1.20;0.80;;;11.50;99.90;;;;;;7394069;19;20498;-76
2023/01/04 15:03:05;;;;;;;1.27;0.77;;;11.40;99.90;;;;;;7393577;19;20139;-77
2023/01/04 15:05:31;;;;;;;1.13;0.60;;;11.50;99.90;;;;;;7390724;19;20145;-77
2023/01/04 15:07:57;;;;;;;2.50;0.90;;;11.40;99.90;;;;;;7391468;19;20139;-79
2023/01/04 15:10:25;;;;;;;1.00;0.83;;;11.30;99.90;;;;;;7393103;19;20654;-77
2023/01/04 15:12:52;;;;;;;1.30;0.80;;;11.30;99.90;;;;;;7389011;19;20139;-78
2023/01/04 15:15:19;;;;;;;1.03;0.70;;;11.30;99.90;;;;;;7391589;19;20138;-75
2023/01/04 15:17:45;;;;;;;1.30;0.60;;;11.30;99.90;;;;;;7389460;19;20171;-79
2023/01/04 15:20:11;;;;;;;1.63;0.70;;;11.30;99.90;;;;;;7391719;19;20473;-77
2023/01/04 15:22:38;;;;;;;0.77;0.67;;;11.40;99.90;;;;;;7391499;19;20135;-75
2023/01/04 15:25:05;;;;;;;1.30;0.90;;;11.30;99.90;;;;;;7390505;19;20622;-76
2023/01/04 15:27:31;;;;;;;0.40;0.40;;;11.40;99.90;;;;;;7391468;19;20134;-76
2023/01/04 15:29:57;;;;;;;0.90;0.50;;;11.30;99.90;;;;;;7392149;19;20222;-76
2023/01/04 15:32:23;;;;;;;0.57;0.57;;;11.20;99.90;;;;;;7391672;19;20158;-76
2023/01/04 15:34:49;;;;;;;0.70;0.50;;;11.20;99.90;;;;;;7391311;19;20139;-75
2023/01/04 15:37:15;;;;;;;1.33;0.80;;;11.20;99.90;;;;;;7388518;19;20151;-75
2023/01/04 15:39:40;;;;;;;2.05;0.90;;;11.20;99.90;;;;;;7389203;19;20150;-76
2023/01/04 15:44:54;;;;;;;0.50;0.50;;;11.20;99.90;;;;;;7391536;19;20202;-74
2023/01/04 15:47:20;;;;;;;1.67;0.60;;;11.40;99.90;;;;;;7390687;19;20173;-74
2023/01/04 15:49:45;;;;;;;0.70;0.50;;;11.40;99.90;;;;;;7391276;19;20151;-73
2023/01/04 15:52:11;;;;;;;1.00;0.60;;;11.40;99.90;;;;;;7392498;19;20181;-74
2023/01/04 15:54:37;;;;;;;1.00;0.73;;;11.60;99.90;;;;;;7390571;19;20147;-73
2023/01/04 15:57:03;;;;;;;1.40;0.90;;;11.50;99.90;;;;;;7391778;19;20146;-73
2023/01/04 15:59:30;;;;;;;0.85;0.70;;;11.40;99.90;;;;;;7391914;19;20153;-73
2023/01/04 16:01:56;;;;;;;1.50;0.83;;;11.40;99.90;;;;;;7390847;19;20163;-74
2023/01/04 16:04:21;;;;;;;2.73;0.73;;;11.30;99.90;;;;;;7390888;19;20138;-75
2023/01/04 16:06:47;;;;;;;1.50;0.70;;;11.30;99.90;;;;;;7390168;19;20142;-76
2023/01/04 16:09:13;;;;;;;0.67;0.60;;;11.40;99.90;;;;;;7391438;19;20135;-75
2023/01/04 16:12:40;;;;;;;1.63;0.60;;;11.50;99.90;;;;;;7393001;19;20149;-75
2023/01/04 16:14:26;;;;;;;1.83;0.80;;;11.40;99.90;;;;;;7390147;19;20154;-77
2023/01/04 16:16:52;;;;;;;1.07;0.80;;;11.30;99.90;;;;;;7389864;19;20139;-74